createdAt,value
2023-01-17T00:00:19.216Z,54.75
2023-01-17T00:03:23.536Z,61.87
2023-01-17T00:06:45.619Z,49.03
2023-01-17T00:09:57.105Z,55.42
2023-01-17T00:13:03.375Z,57.35
2023-01-17T00:16:07.487Z,62.17
2023-01-17T00:19:29.535Z,61.03
2023-01-17T00:22:52.203Z,63.22
2023-01-17T00:26:04.969Z,58.90
2023-01-17T00:29:08.629Z,50.97
2023-01-17T00:32:11.761Z,50.03
2023-01-17T00:35:15.479Z,56.67
2023-01-17T00:38:21.733Z,54.80
2023-01-17T00:41:25.224Z,55.15
2023-01-17T00:44:47.215Z,61.45
2023-01-17T00:48:09.420Z,59.42
2023-01-17T00:51:31.305Z,53.33
2023-01-17T00:54:53.617Z,47.30
2023-01-17T00:58:15.763Z,50.53
2023-01-17T01:01:39.037Z,47.45
2023-01-17T01:05:00.765Z,57.00
2023-01-17T01:08:22.983Z,51.87
2023-01-17T01:11:46.049Z,50.78
2023-01-17T01:15:07.932Z,56.97
2023-01-17T01:18:30.977Z,50.40
2023-01-17T01:21:53.565Z,54.65
2023-01-17T01:25:15.224Z,50.97
2023-01-17T01:28:37.211Z,55.55
2023-01-17T01:31:59.968Z,54.17
2023-01-17T01:35:06.709Z,55.55
2023-01-17T01:38:13.219Z,49.17
2023-01-17T01:41:24.728Z,53.87
2023-01-17T01:44:51.854Z,50.28
2023-01-17T01:48:12.858Z,55.10
2023-01-17T01:51:24.231Z,52.17
2023-01-17T01:54:35.844Z,63.72
2023-01-17T01:57:43.725Z,52.85
2023-01-17T02:00:48.028Z,49.13
2023-01-17T02:03:52.751Z,52.13
2023-01-17T02:07:11.895Z,57.62
2023-01-17T02:10:17.824Z,53.50
2023-01-17T02:13:50.037Z,54.70
2023-01-17T02:17:28.024Z,58.60
2023-01-17T02:21:48.011Z,58.60
2023-01-17T02:25:58.188Z,56.00
2023-01-17T02:29:39.389Z,62.28
2023-01-17T02:33:07.273Z,59.53
2023-01-17T02:36:13.623Z,68.00
2023-01-17T02:39:28.923Z,65.80
2023-01-17T02:42:43.015Z,61.72
2023-01-17T02:45:49.153Z,65.82
2023-01-17T02:48:57.126Z,55.60
2023-01-17T02:52:12.928Z,46.22
2023-01-17T02:55:37.189Z,53.97
2023-01-17T02:59:16.047Z,56.85
2023-01-17T03:02:27.282Z,44.20
2023-01-17T03:05:44.323Z,51.67
2023-01-17T03:08:49.908Z,50.80
2023-01-17T03:11:54.098Z,47.83
2023-01-17T03:14:57.682Z,52.22
2023-01-17T03:18:07.875Z,50.50
2023-01-17T03:21:13.979Z,47.67
2023-01-17T03:24:17.728Z,45.03
2023-01-17T03:27:24.195Z,40.60
2023-01-17T03:30:28.086Z,50.42
2023-01-17T03:33:31.499Z,40.83
2023-01-17T03:36:37.832Z,48.20
2023-01-17T03:39:43.500Z,44.08
2023-01-17T03:42:46.959Z,44.03
2023-01-17T03:45:52.248Z,45.33
2023-01-17T03:48:55.939Z,42.67
2023-01-17T03:51:59.061Z,36.67
2023-01-17T03:55:02.858Z,39.80
2023-01-17T03:58:06.150Z,42.85
2023-01-17T04:01:10.121Z,40.88
2023-01-17T04:04:15.043Z,46.20
2023-01-17T04:07:18.375Z,44.45
2023-01-17T04:10:24.622Z,43.65
2023-01-17T04:13:29.776Z,41.67
2023-01-17T04:16:37.584Z,41.85
2023-01-17T04:19:43.649Z,35.88
2023-01-17T04:22:47.159Z,46.83
2023-01-17T04:25:51.021Z,42.80
2023-01-17T04:28:54.413Z,42.83
2023-01-17T04:32:01.917Z,40.72
2023-01-17T04:35:07.292Z,37.45
2023-01-17T04:38:10.595Z,42.88
2023-01-17T04:41:15.247Z,43.25
2023-01-17T04:44:19.123Z,42.73
2023-01-17T04:47:22.728Z,44.38
2023-01-17T04:50:26.187Z,40.28
2023-01-17T04:53:29.816Z,38.33
2023-01-17T04:56:33.026Z,41.03
2023-01-17T04:59:36.727Z,56.00
2023-01-17T05:02:40.453Z,143.57
2023-01-17T05:05:44.748Z,74.82
2023-01-17T05:08:48.379Z,64.95
2023-01-17T05:11:55.881Z,58.00
2023-01-17T05:14:59.310Z,45.53
2023-01-17T05:18:16.446Z,39.92
2023-01-17T05:21:22.924Z,40.20
2023-01-17T05:24:27.094Z,32.43
2023-01-17T05:27:33.506Z,34.35
2023-01-17T05:30:37.292Z,27.17
2023-01-17T05:33:40.810Z,35.83
2023-01-17T05:36:44.556Z,30.02
2023-01-17T05:39:48.240Z,28.85
2023-01-17T05:42:56.447Z,35.55
2023-01-17T05:45:59.881Z,29.13
2023-01-17T05:49:03.612Z,34.17
2023-01-17T05:52:10.013Z,28.55
2023-01-17T05:55:15.802Z,25.27
2023-01-17T05:58:23.248Z,25.42
2023-01-17T06:01:29.693Z,30.45
2023-01-17T06:04:33.575Z,33.00
2023-01-17T06:07:39.976Z,30.92
2023-01-17T06:10:43.922Z,28.27
2023-01-17T06:13:49.051Z,29.42
2023-01-17T06:16:52.791Z,19.03
2023-01-17T06:19:56.074Z,25.65
2023-01-17T06:23:06.428Z,23.27
2023-01-17T06:26:09.974Z,19.73
2023-01-17T06:29:13.823Z,21.67
2023-01-17T06:32:20.063Z,20.92
2023-01-17T06:35:23.608Z,21.87
2023-01-17T06:38:27.955Z,17.35
2023-01-17T06:41:31.977Z,16.42
2023-01-17T06:44:35.254Z,18.08
2023-01-17T06:47:40.059Z,19.17
2023-01-17T06:50:44.679Z,15.15
2023-01-17T06:53:49.651Z,20.67
2023-01-17T06:56:52.999Z,16.93
2023-01-17T06:59:57.533Z,18.05
2023-01-17T07:03:00.930Z,16.87
2023-01-17T07:06:05.596Z,15.57
2023-01-17T07:09:08.823Z,14.52
2023-01-17T07:12:12.311Z,14.07
2023-01-17T07:15:15.605Z,13.45
2023-01-17T07:18:23.213Z,15.43
2023-01-17T07:21:26.418Z,13.73
2023-01-17T07:24:29.982Z,9.57
2023-01-17T07:27:33.724Z,9.13
2023-01-17T07:30:37.197Z,8.27
2023-01-17T07:33:40.930Z,8.15
2023-01-17T07:36:44.391Z,8.43
2023-01-17T07:39:47.490Z,8.07
2023-01-17T07:42:51.026Z,8.75
2023-01-17T07:45:55.280Z,10.10
2023-01-17T07:49:00.250Z,8.57
2023-01-17T07:52:04.174Z,7.68
2023-01-17T07:55:09.650Z,9.25
2023-01-17T07:58:15.053Z,8.43
2023-01-17T08:01:19.444Z,6.68
2023-01-17T08:04:29.157Z,7.95
2023-01-17T08:07:32.233Z,9.38
2023-01-17T08:10:36.529Z,6.68
2023-01-17T08:13:41.913Z,7.07
2023-01-17T08:16:46.973Z,6.90
2023-01-17T08:19:52.335Z,9.23
2023-01-17T08:22:57.124Z,11.60
2023-01-17T08:26:01.404Z,7.57
2023-01-17T08:29:05.697Z,8.43
2023-01-17T08:32:08.952Z,7.72
2023-01-17T08:35:13.225Z,9.00
2023-01-17T08:38:16.312Z,7.15
2023-01-17T08:41:21.083Z,6.60
2023-01-17T08:44:24.410Z,6.32
2023-01-17T08:47:28.145Z,4.57
2023-01-17T08:50:31.301Z,6.27
2023-01-17T08:53:34.856Z,4.72
2023-01-17T08:56:37.946Z,4.32
2023-01-17T08:59:42.633Z,4.20
2023-01-17T09:02:45.844Z,4.27
2023-01-17T09:05:50.421Z,4.32
2023-01-17T09:08:55.456Z,4.80
2023-01-17T09:11:59.331Z,4.97
2023-01-17T09:15:03.305Z,9.48
2023-01-17T09:18:06.838Z,5.57
2023-01-17T09:21:13.823Z,5.35
2023-01-17T09:24:17.460Z,4.83
2023-01-17T09:27:21.094Z,4.87
2023-01-17T09:30:25.038Z,5.47
2023-01-17T09:33:28.656Z,7.93
2023-01-17T09:36:34.148Z,2.97
2023-01-17T09:39:37.196Z,5.05
2023-01-17T09:42:41.546Z,3.85
2023-01-17T09:45:45.146Z,3.67
2023-01-17T09:48:56.578Z,4.25
2023-01-17T09:52:00.334Z,3.05
2023-01-17T09:55:07.294Z,3.20
2023-01-17T09:58:19.680Z,3.67
2023-01-17T10:01:35.944Z,5.33
2023-01-17T10:04:57.908Z,3.00
2023-01-17T10:08:19.247Z,3.25
2023-01-17T10:11:31.939Z,4.43
2023-01-17T10:14:56.993Z,2.65
2023-01-17T10:18:29.594Z,2.83
2023-01-17T10:21:51.953Z,4.15
2023-01-17T10:25:17.426Z,8.02
2023-01-17T10:28:23.315Z,4.80
2023-01-17T10:31:31.481Z,5.62
2023-01-17T10:34:45.801Z,3.07
2023-01-17T10:37:52.378Z,5.00
2023-01-17T10:41:04.795Z,5.25
2023-01-17T10:44:39.689Z,6.18
2023-01-17T10:47:48.617Z,6.18
2023-01-17T10:51:02.753Z,5.97
2023-01-17T10:54:21.218Z,7.70
2023-01-17T10:57:27.441Z,7.80
2023-01-17T11:00:45.587Z,6.50
2023-01-17T11:03:51.291Z,6.97
2023-01-17T11:07:24.788Z,5.60
2023-01-17T11:10:46.667Z,5.78
2023-01-17T11:13:52.284Z,7.20
2023-01-17T11:17:01.412Z,8.13
2023-01-17T11:20:24.691Z,5.82
2023-01-17T11:23:33.501Z,5.05
2023-01-17T11:26:38.836Z,10.90
2023-01-17T11:29:42.306Z,6.07
2023-01-17T11:32:58.377Z,5.07
2023-01-17T11:36:01.788Z,7.60
2023-01-17T11:39:07.154Z,6.40
2023-01-17T11:42:35.533Z,6.50
2023-01-17T11:45:40.814Z,6.72
2023-01-17T11:48:51.074Z,7.20
2023-01-17T11:51:56.343Z,7.20
2023-01-17T11:54:59.976Z,8.80
2023-01-17T11:58:03.848Z,7.47
2023-01-17T12:01:32.807Z,5.65
2023-01-17T12:04:43.573Z,6.55
2023-01-17T12:08:02.188Z,7.97
2023-01-17T12:11:08.548Z,5.03
2023-01-17T12:14:29.360Z,5.55
2023-01-17T12:17:56.116Z,8.10
2023-01-17T12:21:25.364Z,8.18
2023-01-17T12:24:58.611Z,5.33
2023-01-17T12:28:04.688Z,5.43
2023-01-17T12:31:15.421Z,5.43
2023-01-17T12:34:25.781Z,7.32
2023-01-17T12:37:34.650Z,6.68
2023-01-17T12:40:44.445Z,5.13
2023-01-17T12:43:48.625Z,5.00
2023-01-17T12:47:02.455Z,12.18
2023-01-17T12:50:24.707Z,5.18
2023-01-17T12:53:39.533Z,6.13
2023-01-17T12:56:52.975Z,4.78
2023-01-17T13:00:06.051Z,13.15
2023-01-17T13:03:24.074Z,13.27
2023-01-17T13:06:59.796Z,10.05
2023-01-17T13:10:29.744Z,11.10
2023-01-17T13:13:35.795Z,6.20
2023-01-17T13:16:45.338Z,6.85
2023-01-17T13:20:08.840Z,12.13
2023-01-17T13:23:23.283Z,6.60
2023-01-17T13:26:29.268Z,14.63
2023-01-17T13:29:55.850Z,9.35
2023-01-17T13:33:36.463Z,9.38
2023-01-17T13:36:51.611Z,11.32
2023-01-17T13:40:34.321Z,9.77
2023-01-17T13:43:40.840Z,7.93
2023-01-17T13:47:08.315Z,12.70
2023-01-17T13:50:40.950Z,9.70
2023-01-17T13:53:44.033Z,9.30
2023-01-17T13:56:47.399Z,8.80
2023-01-17T13:59:50.787Z,8.87
2023-01-17T14:02:55.629Z,8.25
2023-01-17T14:05:59.198Z,5.72
2023-01-17T14:09:08.303Z,8.02
2023-01-17T14:12:11.997Z,7.30
2023-01-17T14:15:23.673Z,6.70
2023-01-17T14:18:37.700Z,14.43
2023-01-17T14:21:41.392Z,14.00
2023-01-17T14:25:14.994Z,22.13
2023-01-17T14:28:27.381Z,16.15
2023-01-17T14:31:30.868Z,20.80
2023-01-17T14:34:34.873Z,18.17
2023-01-17T14:37:44.843Z,9.43
2023-01-17T14:41:14.197Z,7.50
2023-01-17T14:44:18.699Z,6.82
2023-01-17T14:47:22.612Z,6.78
2023-01-17T14:50:42.961Z,6.83
2023-01-17T14:53:57.726Z,8.05
2023-01-17T14:57:28.105Z,31.10
2023-01-17T15:00:35.249Z,50.28
2023-01-17T15:03:53.662Z,61.45
2023-01-17T15:06:58.786Z,25.10
2023-01-17T15:10:03.999Z,20.73
2023-01-17T15:13:10.338Z,23.30
2023-01-17T15:16:24.193Z,44.95
2023-01-17T15:19:27.412Z,35.03
2023-01-17T15:22:31.178Z,28.48
2023-01-17T15:25:35.087Z,37.78
2023-01-17T15:28:38.947Z,130.05
2023-01-17T15:31:52.431Z,42.92
2023-01-17T15:34:57.116Z,22.27
2023-01-17T15:38:01.429Z,13.27
2023-01-17T15:41:14.889Z,12.77
2023-01-17T15:44:42.645Z,22.00
2023-01-17T15:47:51.400Z,19.27
2023-01-17T15:51:00.809Z,13.85
2023-01-17T15:54:34.558Z,15.27
2023-01-17T15:57:38.377Z,15.00
2023-01-17T16:00:44.391Z,13.80
2023-01-17T16:03:55.764Z,12.18
2023-01-17T16:07:21.971Z,13.23
2023-01-17T16:10:28.889Z,21.20
2023-01-17T16:13:38.778Z,21.30
2023-01-17T16:16:51.177Z,24.45
2023-01-17T16:19:55.843Z,22.23
2023-01-17T16:23:00.547Z,34.88
2023-01-17T16:26:05.430Z,21.50
2023-01-17T16:29:09.468Z,31.23
2023-01-17T16:32:15.594Z,22.52
2023-01-17T16:35:24.289Z,21.77
2023-01-17T16:38:27.852Z,15.82
2023-01-17T16:41:31.992Z,18.63
2023-01-17T16:44:37.580Z,17.08
2023-01-17T16:47:42.460Z,16.50
2023-01-17T16:50:52.385Z,15.68
2023-01-17T16:53:58.367Z,16.20
2023-01-17T16:57:01.690Z,15.80
2023-01-17T17:00:07.483Z,13.52
2023-01-17T17:03:21.377Z,13.13
2023-01-17T17:06:24.836Z,11.12
2023-01-17T17:09:28.304Z,11.05
2023-01-17T17:12:32.623Z,11.68
2023-01-17T17:15:42.308Z,11.65
2023-01-17T17:18:47.991Z,12.15
2023-01-17T17:21:52.860Z,12.15
2023-01-17T17:24:56.488Z,9.63
2023-01-17T17:28:00.005Z,10.98
2023-01-17T17:31:11.259Z,11.77
2023-01-17T17:34:15.926Z,11.27
2023-01-17T17:37:22.623Z,10.35
2023-01-17T17:40:26.834Z,10.15
2023-01-17T17:43:36.426Z,14.57
2023-01-17T17:46:40.294Z,12.80
2023-01-17T17:49:44.270Z,13.60
2023-01-17T17:52:49.600Z,14.20
2023-01-17T17:55:54.511Z,11.77
2023-01-17T17:59:01.202Z,14.05
2023-01-17T18:02:11.259Z,28.17
2023-01-17T18:05:16.240Z,19.92
2023-01-17T18:08:21.999Z,29.98
2023-01-17T18:11:29.773Z,15.18
2023-01-17T18:14:34.319Z,12.25
2023-01-17T18:17:39.039Z,12.40
2023-01-17T18:20:43.799Z,15.95
2023-01-17T18:23:48.103Z,15.18
2023-01-17T18:26:54.835Z,17.87
2023-01-17T18:30:00.686Z,13.70
2023-01-17T18:33:06.171Z,13.32
2023-01-17T18:36:13.169Z,13.62
2023-01-17T18:39:22.563Z,11.88
2023-01-17T18:42:28.674Z,14.55
2023-01-17T18:45:33.185Z,18.20
2023-01-17T18:48:39.418Z,14.13
2023-01-17T18:51:47.151Z,13.23
2023-01-17T18:54:51.830Z,10.60
2023-01-17T18:57:56.710Z,19.07
2023-01-17T19:01:16.921Z,11.88
2023-01-17T19:04:22.159Z,8.02
2023-01-17T19:07:30.088Z,8.18
2023-01-17T19:10:35.328Z,6.32
2023-01-17T19:13:42.463Z,5.95
2023-01-17T19:16:46.983Z,7.05
2023-01-17T19:19:52.249Z,7.07
2023-01-17T19:22:57.669Z,7.07
2023-01-17T19:26:04.170Z,6.12
2023-01-17T19:29:09.472Z,6.13
2023-01-17T19:32:14.858Z,5.97
2023-01-17T19:35:23.606Z,5.78
2023-01-17T19:38:31.414Z,7.53
2023-01-17T19:41:39.100Z,4.32
2023-01-17T19:44:44.318Z,8.45
2023-01-17T19:47:49.742Z,8.20
2023-01-17T19:50:55.651Z,5.63
2023-01-17T19:54:01.895Z,16.35
2023-01-17T19:57:06.648Z,10.02
2023-01-17T20:00:13.840Z,10.73
2023-01-17T20:03:20.091Z,7.93
2023-01-17T20:06:31.181Z,4.93
2023-01-17T20:09:36.036Z,5.35
2023-01-17T20:12:41.345Z,6.00
2023-01-17T20:15:45.966Z,6.60
2023-01-17T20:18:51.426Z,6.70
2023-01-17T20:21:56.151Z,6.80
2023-01-17T20:25:01.219Z,6.93
2023-01-17T20:28:06.262Z,7.18
2023-01-17T20:31:13.478Z,7.03
2023-01-17T20:34:20.170Z,8.05
2023-01-17T20:37:26.343Z,7.68
2023-01-17T20:40:31.131Z,6.75
2023-01-17T20:43:35.985Z,7.35
2023-01-17T20:46:43.461Z,13.73
2023-01-17T20:49:50.199Z,6.15
2023-01-17T20:52:56.562Z,9.63
2023-01-17T20:56:01.627Z,5.53
2023-01-17T20:59:12.154Z,5.37
2023-01-17T21:02:18.371Z,5.10
2023-01-17T21:05:22.477Z,5.68
2023-01-17T21:08:26.028Z,7.45
2023-01-17T21:11:31.038Z,6.07
2023-01-17T21:14:37.733Z,5.37
2023-01-17T21:17:43.408Z,6.65
2023-01-17T21:20:50.637Z,4.45
2023-01-17T21:23:57.498Z,4.37
2023-01-17T21:27:01.598Z,9.05
2023-01-17T21:30:05.328Z,6.60
2023-01-17T21:33:09.420Z,5.20
2023-01-17T21:36:16.522Z,4.45
2023-01-17T21:39:20.317Z,5.53
2023-01-17T21:42:26.592Z,5.00
2023-01-17T21:45:32.260Z,5.90
2023-01-17T21:48:35.312Z,5.03
2023-01-17T21:51:55.378Z,5.50
2023-01-17T21:55:20.220Z,5.93
2023-01-17T21:58:42.762Z,5.12
2023-01-17T22:01:46.206Z,5.80
2023-01-17T22:04:50.053Z,5.17
2023-01-17T22:08:11.813Z,4.32
2023-01-17T22:11:17.949Z,4.00
2023-01-17T22:14:21.085Z,4.35
2023-01-17T22:17:24.796Z,5.45
2023-01-17T22:20:28.227Z,4.12
2023-01-17T22:23:34.410Z,4.62
2023-01-17T22:26:41.807Z,5.60
2023-01-17T22:29:48.143Z,5.00
2023-01-17T22:32:51.331Z,4.43
2023-01-17T22:35:59.028Z,5.47
2023-01-17T22:39:05.181Z,4.85
2023-01-17T22:42:08.862Z,4.97
2023-01-17T22:45:12.466Z,4.65
2023-01-17T22:48:16.790Z,4.70
2023-01-17T22:51:22.671Z,5.05
2023-01-17T22:54:27.441Z,4.93
2023-01-17T22:57:30.578Z,4.77
2023-01-17T23:00:35.837Z,4.03
2023-01-17T23:03:42.346Z,4.70
2023-01-17T23:06:46.637Z,4.20
2023-01-17T23:09:49.785Z,3.97
2023-01-17T23:12:53.287Z,4.87
2023-01-17T23:16:15.195Z,3.90
2023-01-17T23:19:24.991Z,4.62
2023-01-17T23:22:30.167Z,3.12
2023-01-17T23:25:33.745Z,3.70
2023-01-17T23:28:37.115Z,4.53
2023-01-17T23:31:40.884Z,3.60
2023-01-17T23:34:44.054Z,3.70
2023-01-17T23:38:06.905Z,4.33
2023-01-17T23:41:28.905Z,4.45
2023-01-17T23:44:32.273Z,4.18
2023-01-17T23:47:35.410Z,5.53
2023-01-17T23:50:40.854Z,4.05
2023-01-17T23:53:45.320Z,3.70
2023-01-17T23:56:49.100Z,4.45
2023-01-17T23:59:52.820Z,4.10
